Houston, Texas
Traffic Map
Current Weather Conditions
Houston, Texas
Overcast
Overcast

Feels Like: 9°
Wind Chill: Ceiling: 2600
Heat Index: Visibility: 10mi
Dew Point: Wind: 0mph
Humidity: 87% Direction: ° ()
Pressure: 30.09in Gusts: 0mph
Raw Report DataKMCJ 211315Z AUTO 00000KT 10SM OVC026 09/07 A3009 RMK AO1
Traffic Incident Summary
Active as of:
Severity:
Category:
InformationThere was an issue retrieving the traffic information for this location. Please try a different location or try again shortly.
Advertisements
Track Severe Weather on mobile